LDSB/BWK METAR and TAF weather

Enter ICAO airport designator
Station Type Date Time Source
LDSB METAR 2022/12/07 11:00 UTC NOAA

LDSB 071100Z 20004KT 150V240 9999 -RA FEW015 SCT025 BKN035 12/10 Q1011


Station Type Date Time Source
LDSB Decoded METAR 2022/12/07 11:00 UTC NOAA

Brac, Croatia (LDSB) 43-17-09N 016-40-47E
Dec 07, 2022 - 06:00 AM EST / 2022.12.07 1100 UTC
Wind: from the SSW (200 degrees) at 5 MPH (4 KT) (direction variable):0
Visibility: greater than 7 mile(s):0
Sky conditions: mostly cloudy
Weather: light rain
Temperature: 53 F (12 C)
Dew Point: 50 F (10 C)
Relative Humidity: 87%
Pressure (altimeter): 29.85 in. Hg (1011 hPa)
ob: LDSB 071100Z 20004KT 150V240 9999 -RA FEW015 SCT025 BKN035 12/10 Q1011
cycle: 11

Station Type Date Time Source
LDSB TAF 2022/12/07 11:06 UTC NOAA

TAF
AMD TAF
AMD LDSB 071104Z 0711/0806 CNL

Example: see airport list